Pacific Beach, California
Current Conditions -  °F | °C
As of 6:51 AM on Monday 24 Nov 2014 (Local Time) from KSAN Reporting Station
Broken Clouds Broken Clouds  
Wind Chill: 53°   Ceiling: 25000
Heat Index: 53°   Visibility: 10mi
Dew Point: 28°   Wind: 0mph
Humidity: 38%   Direction: NA
Pressure: 30.18"   Gusts: NA
Location:  32.7984°N, 117.236°W
Report Text: KSAN 241451Z 00000KT 10SM FEW200 BKN250 12/M02 A3018 RMK AO2 SLP218 T01171022 53015
Loading
Personal Weather Stations






























Interactive Weather Map New forecast layout! Learn more

10-Day Weather Forecast

Advertisements
Track Severe Weather on mobile